Atlanta, Illinois
Current Conditions -  °F | °C
As of 8:55 AM on Thursday 30 Oct 2014 (Local Time) from KAAA Reporting Station
Clear Clear  
Wind Chill: 38°   Ceiling: Unl
Heat Index: 38°   Visibility: 7mi
Dew Point: 37°   Wind: 3mph
Humidity: 95%   Direction: 180°S
Pressure: 30.15"   Gusts: NA
Location:  40.26°N, 89.23°W
Report Text: KAAA 301355Z AUTO 18003KT 7SM CLR 03/03 A3015 RMK AO2 T00330025
Loading
Personal Weather Stations






























Interactive Weather Map
Tropical Storm Tracking
New forecast layout! Learn more

10-Day Weather Forecast

Advertisements
Track Severe Weather on mobile